Terminal Aerodrome Forecast
Issued by NWS

Home | Current Version | Previous Version | Text Only | Print | Product List | Glossary Off
Versions: 1 2 3 4 5 6 7 8 9 10 11 12 13 14 15 16 17 18 19 20 21 22 23

652
FTUS43 KTOP 272331
TAFMHK
TAF
KMHK 272331Z 2800/2824 26012G22KT P6SM BKN035
     FM280200 24007KT P6SM SCT040 SCT100
     FM281600 30007KT P6SM BKN250=

USA.gov is the U.S. government's official web portal to all federal, state and local government web resources and services.